createdAt,value
2018-06-15T00:04:35.126Z,3.65
2018-06-15T00:07:05.545Z,2.92
2018-06-15T00:09:36.093Z,5.17
2018-06-15T00:12:06.205Z,2.47
2018-06-15T00:14:36.943Z,3.05
2018-06-15T00:17:07.781Z,3.52
2018-06-15T00:19:38.518Z,4.50
2018-06-15T00:22:08.830Z,2.50
2018-06-15T00:24:38.857Z,3.70
2018-06-15T00:27:08.970Z,3.67
2018-06-15T00:29:39.212Z,2.65
2018-06-15T00:32:09.106Z,2.20
2018-06-15T00:34:39.033Z,2.20
2018-06-15T00:37:09.044Z,3.20
2018-06-15T00:39:39.066Z,2.55
2018-06-15T00:42:09.177Z,4.30
2018-06-15T00:44:39.714Z,3.17
2018-06-15T00:47:09.623Z,1.52
2018-06-15T00:49:39.640Z,5.12
2018-06-15T00:52:09.455Z,2.37
2018-06-15T00:54:39.265Z,2.33
2018-06-15T00:57:20.447Z,3.77
2018-06-15T00:59:50.472Z,3.05
2018-06-15T01:02:20.576Z,2.50
2018-06-15T01:04:50.504Z,2.45
2018-06-15T01:07:20.623Z,2.55
2018-06-15T01:09:50.730Z,2.02
2018-06-15T01:12:20.668Z,2.20
2018-06-15T01:14:50.599Z,5.92
2018-06-15T01:17:20.777Z,3.20
2018-06-15T01:19:50.506Z,3.95
2018-06-15T01:22:20.461Z,3.50
2018-06-15T01:24:50.604Z,3.37
2018-06-15T01:27:20.558Z,2.60
2018-06-15T01:29:50.642Z,2.60
2018-06-15T01:32:20.499Z,2.47
2018-06-15T01:34:50.311Z,2.75
2018-06-15T01:37:20.234Z,2.98
2018-06-15T01:39:50.026Z,3.47
2018-06-15T01:42:19.956Z,2.65
2018-06-15T01:44:50.078Z,1.90
2018-06-15T01:47:20.098Z,1.95
2018-06-15T01:49:49.903Z,2.45
2018-06-15T01:52:20.029Z,3.45
2018-06-15T01:54:50.150Z,2.25
2018-06-15T01:57:19.961Z,3.33
2018-06-15T01:59:49.987Z,2.22
2018-06-15T02:02:20.090Z,3.72
2018-06-15T02:04:50.207Z,2.87
2018-06-15T02:07:20.545Z,3.40
2018-06-15T02:09:51.580Z,3.05
2018-06-15T02:12:21.799Z,3.33
2018-06-15T02:14:51.814Z,2.55
2018-06-15T02:17:21.942Z,3.17
2018-06-15T02:19:51.757Z,2.80
2018-06-15T02:22:21.778Z,3.10
2018-06-15T02:24:51.993Z,1.70
2018-06-15T02:27:22.310Z,1.98
2018-06-15T02:29:52.440Z,2.85
2018-06-15T02:32:22.543Z,4.00
2018-06-15T02:34:52.585Z,1.90
2018-06-15T02:37:22.409Z,3.12
2018-06-15T02:39:53.135Z,2.83
2018-06-15T02:42:23.144Z,2.25
2018-06-15T02:44:53.059Z,3.12
2018-06-15T02:47:23.081Z,2.30
2018-06-15T02:49:53.294Z,3.20
2018-06-15T02:52:23.320Z,2.85
2018-06-15T02:54:53.373Z,2.72
2018-06-15T02:57:23.051Z,3.70
2018-06-15T02:59:53.268Z,2.10
2018-06-15T03:02:23.490Z,3.65
2018-06-15T03:04:52.611Z,3.27
2018-06-15T03:07:22.134Z,1.75
2018-06-15T03:09:50.958Z,2.33
2018-06-15T03:12:19.942Z,1.98
2018-06-15T03:14:49.096Z,2.15
2018-06-15T03:17:18.342Z,3.30
2018-06-15T03:19:47.390Z,2.72
2018-06-15T03:22:16.186Z,3.92
2018-06-15T03:24:45.082Z,2.52
2018-06-15T03:27:14.169Z,2.85
2018-06-15T03:29:43.169Z,3.22
2018-06-15T03:32:12.258Z,1.82
2018-06-15T03:34:41.222Z,2.47
2018-06-15T03:37:10.241Z,3.52
2018-06-15T03:39:39.287Z,1.92
2018-06-15T03:42:08.240Z,3.10
2018-06-15T03:44:37.254Z,1.98
2018-06-15T03:47:06.318Z,3.12
2018-06-15T03:49:35.339Z,2.02
2018-06-15T03:52:04.163Z,1.92
2018-06-15T03:54:33.222Z,1.70
2018-06-15T03:57:02.564Z,4.05
2018-06-15T03:59:31.709Z,2.47
2018-06-15T04:02:00.706Z,1.80
2018-06-15T04:04:29.803Z,2.42
2018-06-15T04:06:58.840Z,1.98
2018-06-15T04:09:27.625Z,2.42
2018-06-15T04:11:56.542Z,2.35
2018-06-15T04:14:25.525Z,2.60
2018-06-15T04:16:54.624Z,1.95
2018-06-15T04:19:23.789Z,5.65
2018-06-15T04:21:52.602Z,3.67
2018-06-15T04:24:21.630Z,2.50
2018-06-15T04:26:50.656Z,2.20
2018-06-15T04:29:19.688Z,2.17
2018-06-15T04:31:48.471Z,2.30
2018-06-15T04:34:17.364Z,2.52
2018-06-15T04:36:46.987Z,3.00
2018-06-15T04:39:15.968Z,2.30
2018-06-15T04:41:45.032Z,2.10
2018-06-15T04:44:13.863Z,2.37
2018-06-15T04:46:42.856Z,2.67
2018-06-15T04:49:11.847Z,2.42
2018-06-15T04:51:40.822Z,2.15
2018-06-15T04:54:09.674Z,2.17
2018-06-15T04:56:38.702Z,3.22
2018-06-15T04:59:07.692Z,2.35
2018-06-15T05:01:36.670Z,3.17
2018-06-15T05:04:05.608Z,3.02
2018-06-15T05:06:34.591Z,3.05
2018-06-15T05:09:06.099Z,2.62
2018-06-15T05:11:35.105Z,3.33
2018-06-15T05:14:04.377Z,3.37
2018-06-15T05:16:33.553Z,3.47
2018-06-15T05:19:02.657Z,4.37
2018-06-15T05:21:31.690Z,4.83
2018-06-15T05:24:00.682Z,5.40
2018-06-15T05:26:29.737Z,5.50
2018-06-15T05:28:58.671Z,4.35
2018-06-15T05:31:27.712Z,4.45
2018-06-15T05:33:57.133Z,4.72
2018-06-15T05:36:25.966Z,6.28
2018-06-15T05:38:54.826Z,4.50
2018-06-15T05:41:23.878Z,4.87
2018-06-15T05:43:52.791Z,6.20
2018-06-15T05:46:21.877Z,4.78
2018-06-15T05:48:50.890Z,4.10
2018-06-15T05:51:20.033Z,5.12
2018-06-15T05:53:48.926Z,4.87
2018-06-15T05:56:18.125Z,3.40
2018-06-15T05:58:47.064Z,4.85
2018-06-15T06:01:15.956Z,5.15
2018-06-15T06:03:45.053Z,5.90
2018-06-15T06:06:14.199Z,4.55
2018-06-15T06:08:43.450Z,4.10
2018-06-15T06:11:12.410Z,4.20
2018-06-15T06:13:41.319Z,5.50
2018-06-15T06:16:10.217Z,5.35
2018-06-15T06:18:39.148Z,4.87
2018-06-15T06:21:08.217Z,4.03
2018-06-15T06:23:37.153Z,6.78
2018-06-15T06:26:06.479Z,6.53
2018-06-15T06:28:35.461Z,5.60
2018-06-15T06:31:04.647Z,5.12
2018-06-15T06:33:33.590Z,8.63
2018-06-15T06:36:02.645Z,4.90
2018-06-15T06:38:31.758Z,4.15
2018-06-15T06:41:00.836Z,3.67
2018-06-15T06:43:29.665Z,7.90
2018-06-15T06:45:58.697Z,8.00
2018-06-15T06:48:27.533Z,8.00
2018-06-15T06:50:56.299Z,9.88
2018-06-15T06:53:25.115Z,8.35
2018-06-15T06:55:53.875Z,5.17
2018-06-15T06:58:22.665Z,9.05
2018-06-15T07:00:51.615Z,8.20
2018-06-15T07:03:20.403Z,5.62
2018-06-15T07:05:49.240Z,5.95
2018-06-15T07:08:18.183Z,5.92
2018-06-15T07:10:47.341Z,6.65
2018-06-15T07:13:16.196Z,7.20
2018-06-15T07:15:45.098Z,9.58
2018-06-15T07:18:13.886Z,20.40
2018-06-15T07:20:43.619Z,11.73
2018-06-15T07:23:12.563Z,13.13
2018-06-15T07:25:41.620Z,18.62
2018-06-15T07:28:10.855Z,9.68
2018-06-15T07:30:39.823Z,10.10
2018-06-15T07:33:08.898Z,11.85
2018-06-15T07:35:38.045Z,7.78
2018-06-15T07:38:07.189Z,8.20
2018-06-15T07:40:36.321Z,10.95
2018-06-15T07:43:05.331Z,8.08
2018-06-15T07:45:34.392Z,10.40
2018-06-15T07:48:03.636Z,8.53
2018-06-15T07:50:32.674Z,10.53
2018-06-15T07:53:01.617Z,14.20
2018-06-15T07:55:30.651Z,8.15
2018-06-15T07:57:59.518Z,6.10
2018-06-15T08:00:28.554Z,7.10
2018-06-15T08:02:57.485Z,5.92
2018-06-15T08:05:26.731Z,7.08
2018-06-15T08:07:56.088Z,5.62
2018-06-15T08:10:24.987Z,5.65
2018-06-15T08:12:54.058Z,10.80
2018-06-15T08:15:23.081Z,6.72
2018-06-15T08:17:52.085Z,5.40
2018-06-15T08:20:21.200Z,7.12
2018-06-15T08:22:50.322Z,4.60
2018-06-15T08:25:19.349Z,7.75
2018-06-15T08:27:48.360Z,3.30
2018-06-15T08:30:17.466Z,3.65
2018-06-15T08:32:46.658Z,4.10
2018-06-15T08:35:15.837Z,6.12
2018-06-15T08:37:44.841Z,2.90
2018-06-15T08:40:13.904Z,5.22
2018-06-15T08:42:43.133Z,7.42
2018-06-15T08:45:12.270Z,4.67
2018-06-15T08:47:41.298Z,4.65
2018-06-15T08:50:10.263Z,4.90
2018-06-15T08:52:39.314Z,8.08
2018-06-15T08:55:08.465Z,6.87
2018-06-15T08:57:37.358Z,5.40
2018-06-15T09:00:06.504Z,3.58
2018-06-15T09:02:35.479Z,4.22
2018-06-15T09:05:04.617Z,4.00
2018-06-15T09:07:33.648Z,3.77
2018-06-15T09:10:02.576Z,2.85
2018-06-15T09:12:31.477Z,3.98
2018-06-15T09:15:00.521Z,5.30
2018-06-15T09:17:30.272Z,4.70
2018-06-15T09:19:59.228Z,5.53
2018-06-15T09:22:28.049Z,5.03
2018-06-15T09:24:57.153Z,2.67
2018-06-15T09:27:26.053Z,5.72
2018-06-15T09:29:55.131Z,4.10
2018-06-15T09:32:24.065Z,3.17
2018-06-15T09:34:53.097Z,2.47
2018-06-15T09:37:22.055Z,3.77
2018-06-15T09:39:51.050Z,2.33
2018-06-15T09:42:20.172Z,3.05
2018-06-15T09:44:49.215Z,3.45
2018-06-15T09:47:18.120Z,3.10
2018-06-15T09:49:47.269Z,3.30
2018-06-15T09:52:16.192Z,4.62
2018-06-15T09:54:45.392Z,2.67
2018-06-15T09:57:14.595Z,2.33
2018-06-15T09:59:43.615Z,3.92
2018-06-15T10:02:12.727Z,2.33
2018-06-15T10:04:41.683Z,2.27
2018-06-15T10:07:10.679Z,3.27
2018-06-15T10:09:39.667Z,2.65
2018-06-15T10:12:08.818Z,3.12
2018-06-15T10:14:37.705Z,4.55
2018-06-15T10:17:06.646Z,3.55
2018-06-15T10:19:35.627Z,4.08
2018-06-15T10:22:04.989Z,2.58
2018-06-15T10:24:33.993Z,3.47
2018-06-15T10:27:03.126Z,2.65
2018-06-15T10:29:33.007Z,2.52
2018-06-15T10:32:02.641Z,2.47
2018-06-15T10:34:31.860Z,2.62
2018-06-15T10:37:01.171Z,2.55
2018-06-15T10:39:30.170Z,2.65
2018-06-15T10:41:59.035Z,2.33
2018-06-15T10:44:28.047Z,2.95
2018-06-15T10:46:57.125Z,2.67
2018-06-15T10:49:26.668Z,2.08
2018-06-15T10:51:55.741Z,2.52
2018-06-15T10:54:24.736Z,2.95
2018-06-15T10:56:53.729Z,4.05
2018-06-15T10:59:22.671Z,4.75
2018-06-15T11:01:51.632Z,4.22
2018-06-15T11:04:20.746Z,4.25
2018-06-15T11:06:49.703Z,3.20
2018-06-15T11:09:18.748Z,1.52
2018-06-15T11:11:47.697Z,1.80
2018-06-15T11:14:16.930Z,4.30
2018-06-15T11:16:45.847Z,2.98
2018-06-15T11:19:14.986Z,3.22
2018-06-15T11:21:43.940Z,3.08
2018-06-15T11:24:12.753Z,3.65
2018-06-15T11:26:41.819Z,4.35
2018-06-15T11:29:10.902Z,3.52
2018-06-15T11:31:39.960Z,4.33
2018-06-15T11:34:08.856Z,2.75
2018-06-15T11:36:37.888Z,3.30
2018-06-15T11:39:09.024Z,1.92
2018-06-15T11:41:38.022Z,2.55
2018-06-15T11:44:07.328Z,2.08
2018-06-15T11:46:36.573Z,2.62
2018-06-15T11:49:05.673Z,1.55
2018-06-15T11:51:34.666Z,2.30
2018-06-15T11:54:03.942Z,2.25
2018-06-15T11:56:32.913Z,2.20
2018-06-15T11:59:01.913Z,3.80
2018-06-15T12:01:31.075Z,2.40
2018-06-15T12:04:00.172Z,3.10
2018-06-15T12:06:29.243Z,4.70
2018-06-15T12:08:58.287Z,2.80
2018-06-15T12:11:27.441Z,4.47
2018-06-15T12:13:56.731Z,1.02
2018-06-15T12:16:25.797Z,2.70
2018-06-15T12:18:55.204Z,1.80
2018-06-15T12:21:24.138Z,2.58
2018-06-15T12:23:53.341Z,3.80
2018-06-15T12:26:22.246Z,2.67
2018-06-15T12:28:51.368Z,3.30
2018-06-15T12:31:20.385Z,2.20
2018-06-15T12:33:49.398Z,1.72
2018-06-15T12:36:18.416Z,4.30
2018-06-15T12:38:47.560Z,3.20
2018-06-15T12:41:16.643Z,2.52
2018-06-15T12:43:45.701Z,3.17
2018-06-15T12:46:14.859Z,2.25
2018-06-15T12:48:43.835Z,3.33
2018-06-15T12:51:12.893Z,2.58
2018-06-15T12:53:42.243Z,2.95
2018-06-15T12:56:11.268Z,4.90
2018-06-15T12:58:40.374Z,3.27
2018-06-15T13:01:09.377Z,3.92
2018-06-15T13:03:38.459Z,4.25
2018-06-15T13:06:07.555Z,3.22
2018-06-15T13:08:36.730Z,4.87
2018-06-15T13:11:05.754Z,4.15
2018-06-15T13:13:34.656Z,4.42
2018-06-15T13:16:03.643Z,3.98
2018-06-15T13:18:32.595Z,3.50
2018-06-15T13:21:01.617Z,4.08
2018-06-15T13:23:30.678Z,3.08
2018-06-15T13:25:59.669Z,4.53
2018-06-15T13:28:29.001Z,3.85
2018-06-15T13:30:57.967Z,4.83
2018-06-15T13:33:26.977Z,4.05
2018-06-15T13:35:56.520Z,5.15
2018-06-15T13:38:25.695Z,3.27
2018-06-15T13:40:54.728Z,4.55
2018-06-15T13:43:23.780Z,3.95
2018-06-15T13:45:52.804Z,3.35
2018-06-15T13:48:21.805Z,4.72
2018-06-15T13:50:50.775Z,6.28
2018-06-15T13:53:19.833Z,3.52
2018-06-15T13:55:48.885Z,3.52
2018-06-15T13:58:17.878Z,4.20
2018-06-15T14:00:46.922Z,3.80
2018-06-15T14:03:15.880Z,3.85
2018-06-15T14:05:45.893Z,4.70
2018-06-15T14:08:15.630Z,4.92
2018-06-15T14:10:44.851Z,4.33
2018-06-15T14:13:13.780Z,6.30
2018-06-15T14:15:42.797Z,6.37
2018-06-15T14:18:12.674Z,4.15
2018-06-15T14:20:41.907Z,4.92
2018-06-15T14:23:11.007Z,5.75
2018-06-15T14:25:40.013Z,4.87
2018-06-15T14:28:09.242Z,6.67
2018-06-15T14:30:38.492Z,4.97
2018-06-15T14:33:07.487Z,5.45
2018-06-15T14:35:36.938Z,6.12
2018-06-15T14:38:06.880Z,7.10
2018-06-15T14:40:35.983Z,7.03
2018-06-15T14:43:05.038Z,5.97
2018-06-15T14:45:33.870Z,5.47
2018-06-15T14:48:03.154Z,6.28
2018-06-15T14:50:32.279Z,4.20
2018-06-15T14:53:01.365Z,4.53
2018-06-15T14:55:30.419Z,6.58
2018-06-15T14:57:59.487Z,4.40
2018-06-15T15:00:28.634Z,7.12
2018-06-15T15:02:57.619Z,4.78
2018-06-15T15:05:26.538Z,5.60
2018-06-15T15:07:55.811Z,6.42
2018-06-15T15:10:25.105Z,5.55
2018-06-15T15:12:54.460Z,6.67
2018-06-15T15:15:23.401Z,4.65
2018-06-15T15:17:52.426Z,6.47
2018-06-15T15:20:21.346Z,5.83
2018-06-15T15:22:50.425Z,4.83
2018-06-15T15:25:19.251Z,7.97
2018-06-15T15:27:48.422Z,5.95
2018-06-15T15:30:17.521Z,4.92
2018-06-15T15:32:46.668Z,5.37
2018-06-15T15:35:15.818Z,7.10
2018-06-15T15:37:45.019Z,5.53
2018-06-15T15:40:13.881Z,4.12
2018-06-15T15:42:42.955Z,5.45
2018-06-15T15:45:11.936Z,8.78
2018-06-15T15:47:40.968Z,7.05
2018-06-15T15:50:10.035Z,3.90
2018-06-15T15:52:39.134Z,4.58
2018-06-15T15:55:08.358Z,5.03
2018-06-15T15:57:37.461Z,3.58
2018-06-15T16:00:06.578Z,6.65
2018-06-15T16:02:35.579Z,5.58
2018-06-15T16:05:04.773Z,4.28
2018-06-15T16:07:33.722Z,6.15
2018-06-15T16:10:03.691Z,3.35
2018-06-15T16:12:32.729Z,4.33
2018-06-15T16:15:01.717Z,3.27
2018-06-15T16:17:30.714Z,6.42
2018-06-15T16:19:59.757Z,5.12
2018-06-15T16:22:28.813Z,3.85
2018-06-15T16:24:57.809Z,3.98
2018-06-15T16:27:26.818Z,4.28
2018-06-15T16:29:55.844Z,7.95
2018-06-15T16:32:24.937Z,6.40
2018-06-15T16:34:54.038Z,6.50
2018-06-15T16:37:23.552Z,3.20
2018-06-15T16:39:52.795Z,5.50
2018-06-15T16:42:21.843Z,4.70
2018-06-15T16:44:51.043Z,5.05
2018-06-15T16:47:20.227Z,3.85
2018-06-15T16:49:49.228Z,3.75
2018-06-15T16:52:18.318Z,5.25
2018-06-15T16:54:47.379Z,5.87
2018-06-15T16:57:16.977Z,3.58
2018-06-15T16:59:46.012Z,4.22
2018-06-15T17:02:14.871Z,5.75
2018-06-15T17:04:43.954Z,5.83
2018-06-15T17:07:13.055Z,5.15
2018-06-15T17:09:42.134Z,6.22
2018-06-15T17:12:11.146Z,3.90
2018-06-15T17:14:40.295Z,3.92
2018-06-15T17:17:09.392Z,4.60
2018-06-15T17:19:38.550Z,5.83
2018-06-15T17:22:07.692Z,5.92
2018-06-15T17:24:36.951Z,5.05
2018-06-15T17:27:05.729Z,6.05
2018-06-15T17:29:34.575Z,6.87
2018-06-15T17:32:03.919Z,8.95
2018-06-15T17:34:32.963Z,7.65
2018-06-15T17:37:02.256Z,5.92
2018-06-15T17:39:31.527Z,10.35
2018-06-15T17:42:00.577Z,5.80
2018-06-15T17:44:29.800Z,4.87
2018-06-15T17:46:59.365Z,3.52
2018-06-15T17:49:28.358Z,4.35
2018-06-15T17:51:57.559Z,5.83
2018-06-15T17:54:26.759Z,5.70
2018-06-15T17:56:55.878Z,3.77
2018-06-15T17:59:24.895Z,4.95
2018-06-15T18:01:53.864Z,7.47
2018-06-15T18:04:23.382Z,5.85
2018-06-15T18:06:52.517Z,4.80
2018-06-15T18:09:21.547Z,5.42
2018-06-15T18:11:50.590Z,6.42
2018-06-15T18:14:19.636Z,7.95
2018-06-15T18:16:48.503Z,6.45
2018-06-15T18:19:17.600Z,6.65
2018-06-15T18:21:47.379Z,8.08
2018-06-15T18:24:16.393Z,5.97
2018-06-15T18:26:45.499Z,6.20
2018-06-15T18:29:14.472Z,7.85
2018-06-15T18:31:43.425Z,7.62
2018-06-15T18:34:12.702Z,8.38
2018-06-15T18:36:41.714Z,5.58
2018-06-15T18:39:13.573Z,5.80
2018-06-15T18:41:43.259Z,6.97
2018-06-15T18:44:12.375Z,7.47
2018-06-15T18:46:41.311Z,8.05
2018-06-15T18:49:10.232Z,8.05
2018-06-15T18:51:39.357Z,7.72
2018-06-15T18:54:08.507Z,9.53
2018-06-15T18:56:37.599Z,7.97
2018-06-15T18:59:06.727Z,7.85
2018-06-15T19:01:35.865Z,8.78
2018-06-15T19:04:05.160Z,8.95
2018-06-15T19:06:34.269Z,8.48
2018-06-15T19:09:03.462Z,10.68
2018-06-15T19:11:32.647Z,9.65
2018-06-15T19:14:01.838Z,8.98
2018-06-15T19:16:30.827Z,10.35
2018-06-15T19:18:59.838Z,8.95
2018-06-15T19:21:28.844Z,10.10
2018-06-15T19:23:57.878Z,10.28
2018-06-15T19:26:26.967Z,10.20
2018-06-15T19:28:56.049Z,9.60
2018-06-15T19:31:25.171Z,10.98
2018-06-15T19:33:54.370Z,10.20
2018-06-15T19:36:23.466Z,9.20
2018-06-15T19:38:52.818Z,9.80
2018-06-15T19:41:21.888Z,11.55
2018-06-15T19:43:50.993Z,9.80
2018-06-15T19:46:20.099Z,9.83
2018-06-15T19:48:49.650Z,10.88
2018-06-15T19:51:18.687Z,8.85
2018-06-15T19:53:47.738Z,8.00
2018-06-15T19:56:17.379Z,8.90
2018-06-15T19:58:46.589Z,7.65
2018-06-15T20:01:15.735Z,8.68
2018-06-15T20:03:44.888Z,8.30
2018-06-15T20:06:14.092Z,8.38
2018-06-15T20:08:43.150Z,8.50
2018-06-15T20:11:12.285Z,9.15
2018-06-15T20:13:41.604Z,9.73
2018-06-15T20:16:10.793Z,7.95
2018-06-15T20:18:39.741Z,8.20
2018-06-15T20:21:09.038Z,10.28
2018-06-15T20:23:38.344Z,7.70
2018-06-15T20:26:07.623Z,8.78
2018-06-15T20:28:36.868Z,9.10
2018-06-15T20:31:05.964Z,9.23
2018-06-15T20:33:35.082Z,8.08
2018-06-15T20:36:04.226Z,8.85
2018-06-15T20:38:33.395Z,7.35
2018-06-15T20:41:02.525Z,8.95
2018-06-15T20:43:31.558Z,8.70
2018-06-15T20:46:00.816Z,9.50
2018-06-15T20:48:29.768Z,8.15
2018-06-15T20:50:58.953Z,8.58
2018-06-15T20:53:28.101Z,8.93
2018-06-15T20:55:57.176Z,8.20
2018-06-15T20:58:26.920Z,9.48
2018-06-15T21:00:56.114Z,8.80
2018-06-15T21:03:25.206Z,8.30
2018-06-15T21:05:54.426Z,8.25
2018-06-15T21:08:23.574Z,8.13
2018-06-15T21:10:52.731Z,9.93
2018-06-15T21:13:21.871Z,8.90
2018-06-15T21:15:50.930Z,8.80
2018-06-15T21:18:19.992Z,7.80
2018-06-15T21:20:48.877Z,8.85
2018-06-15T21:23:17.827Z,8.73
2018-06-15T21:25:46.959Z,6.75
2018-06-15T21:28:15.906Z,6.83
2018-06-15T21:30:44.992Z,5.75
2018-06-15T21:33:14.058Z,8.90
2018-06-15T21:35:43.190Z,6.60
2018-06-15T21:38:12.268Z,6.10
2018-06-15T21:40:41.445Z,8.83
2018-06-15T21:43:10.706Z,6.78
2018-06-15T21:45:39.846Z,5.10
2018-06-15T21:48:08.888Z,5.70
2018-06-15T21:50:38.633Z,6.30
2018-06-15T21:53:07.698Z,5.15
2018-06-15T21:55:36.823Z,5.50
2018-06-15T21:58:06.058Z,5.25
2018-06-15T22:00:35.610Z,4.87
2018-06-15T22:03:04.696Z,4.30
2018-06-15T22:05:33.703Z,5.78
2018-06-15T22:08:03.168Z,5.12
2018-06-15T22:10:32.178Z,4.70
2018-06-15T22:13:01.135Z,4.42
2018-06-15T22:15:30.238Z,5.78
2018-06-15T22:17:59.323Z,6.35
2018-06-15T22:20:28.134Z,5.45
2018-06-15T22:22:57.054Z,5.33
2018-06-15T22:25:26.113Z,4.40
2018-06-15T22:27:55.099Z,5.25
2018-06-15T22:30:24.038Z,4.25
2018-06-15T22:32:53.002Z,5.45
2018-06-15T22:35:22.079Z,5.33
2018-06-15T22:37:51.245Z,5.17
2018-06-15T22:40:20.237Z,6.47
2018-06-15T22:42:49.424Z,5.20
2018-06-15T22:45:18.318Z,5.12
2018-06-15T22:47:47.469Z,3.87
2018-06-15T22:50:16.263Z,3.33
2018-06-15T22:52:45.300Z,4.15
2018-06-15T22:55:14.670Z,4.62
2018-06-15T22:57:43.904Z,2.98
2018-06-15T23:00:16.568Z,4.03
2018-06-15T23:02:45.828Z,3.05
2018-06-15T23:05:14.948Z,3.52
2018-06-15T23:07:43.827Z,3.30
2018-06-15T23:10:12.915Z,3.05
2018-06-15T23:12:41.905Z,2.37
2018-06-15T23:15:10.989Z,5.37
2018-06-15T23:17:40.176Z,2.50
2018-06-15T23:20:09.345Z,4.15
2018-06-15T23:22:38.494Z,4.12
2018-06-15T23:25:07.822Z,4.20
2018-06-15T23:27:36.699Z,4.10
2018-06-15T23:30:06.237Z,3.05
2018-06-15T23:32:35.162Z,3.55
2018-06-15T23:35:04.427Z,4.62
2018-06-15T23:37:33.150Z,8.25
2018-06-15T23:40:01.906Z,12.13
2018-06-15T23:42:30.671Z,10.15
2018-06-15T23:44:59.473Z,13.75
2018-06-15T23:47:28.324Z,8.25
2018-06-15T23:49:57.283Z,12.73
2018-06-15T23:52:26.090Z,6.72
2018-06-15T23:54:54.964Z,6.78
2018-06-15T23:57:23.859Z,5.22
2018-06-15T23:59:52.617Z,4.95
